Time;durP1;ratioP1;P1;durP2;ratioP2;P2;SDS_P1;SDS_P2;PMS_P1;PMS_P2;Temp;Humidity;BMP_temperature;BMP_pressure;BME280_temperature;BME280_humidity;BME280_pressure;Samples;Min_cycle;Max_cycle;Signal;HPM_P1;HPM_P2
2023/05/05 00:00:50;;;;;;;10.02;5.88;;;14.30;99.90;;;;;;5098850;28;20031;-75
2023/05/05 00:03:16;;;;;;;10.82;5.78;;;14.20;99.90;;;;;;5104250;28;20056;-75
2023/05/05 00:05:42;;;;;;;10.95;6.20;;;14.10;99.90;;;;;;5098881;28;20035;-75
2023/05/05 00:08:08;;;;;;;11.57;6.50;;;14.10;99.90;;;;;;5099404;28;20020;-75
2023/05/05 00:10:33;;;;;;;11.65;6.88;;;14.10;99.90;;;;;;5098547;28;20024;-75
2023/05/05 00:12:59;;;;;;;10.40;6.55;;;14.00;99.90;;;;;;5098382;28;20043;-75
2023/05/05 00:15:26;;;;;;;11.57;6.43;;;13.90;99.90;;;;;;5099245;28;20028;-75
2023/05/05 00:17:51;;;;;;;12.15;6.03;;;14.00;99.90;;;;;;5098507;28;20030;-75
2023/05/05 00:20:17;;;;;;;13.10;5.82;;;14.00;99.90;;;;;;5098458;28;20036;-75
2023/05/05 00:22:43;;;;;;;10.82;6.18;;;14.00;99.90;;;;;;5098748;28;20052;-75
2023/05/05 00:25:08;;;;;;;14.70;5.97;;;14.00;99.90;;;;;;5097986;28;20020;-75
2023/05/05 00:27:34;;;;;;;10.55;5.00;;;13.90;99.90;;;;;;5098569;28;20028;-75
2023/05/05 00:29:59;;;;;;;9.68;6.18;;;14.00;99.90;;;;;;5098107;28;20031;-76
2023/05/05 00:32:25;;;;;;;15.23;6.00;;;13.90;99.90;;;;;;5098559;28;20050;-75
2023/05/05 00:34:51;;;;;;;10.43;4.88;;;13.80;99.90;;;;;;5097868;28;20039;-75
2023/05/05 00:37:16;;;;;;;8.43;5.32;;;13.70;99.90;;;;;;5098134;28;20031;-75
2023/05/05 00:39:43;;;;;;;8.93;4.60;;;13.70;99.90;;;;;;5097943;28;20024;-76
2023/05/05 00:42:09;;;;;;;8.50;4.93;;;13.80;99.90;;;;;;5097917;28;20020;-75
2023/05/05 00:44:39;;;;;;;8.52;4.63;;;13.80;99.90;;;;;;5097642;28;20094;-75
2023/05/05 00:47:06;;;;;;;6.78;4.10;;;13.90;99.90;;;;;;5098301;28;20020;-77
2023/05/05 00:49:33;;;;;;;6.35;4.22;;;13.80;99.90;;;;;;5097575;28;20016;-78
2023/05/05 00:51:58;;;;;;;5.38;4.07;;;13.60;99.90;;;;;;5097725;28;20024;-77
2023/05/05 00:54:24;;;;;;;11.80;4.68;;;13.70;99.90;;;;;;5098303;28;20031;-77
2023/05/05 00:56:50;;;;;;;7.72;3.97;;;13.70;99.90;;;;;;5098267;28;20024;-77
2023/05/05 00:59:16;;;;;;;7.28;4.40;;;13.80;99.90;;;;;;5097239;28;20028;-77
2023/05/05 01:01:43;;;;;;;7.82;4.40;;;13.80;99.90;;;;;;5097573;28;20115;-77
2023/05/05 01:04:08;;;;;;;8.30;5.00;;;13.80;99.90;;;;;;5097115;28;20051;-77
2023/05/05 01:07:05;;;;;;;6.25;4.10;;;13.60;99.90;;;;;;5097986;28;20028;-77
2023/05/05 01:09:48;;;;;;;8.65;4.72;;;13.50;99.90;;;;;;5097606;28;20017;-77
2023/05/05 01:12:20;;;;;;;7.40;4.20;;;13.50;99.90;;;;;;5097593;28;20078;-77
2023/05/05 01:14:49;;;;;;;;;;;13.40;99.90;;;;;;5098323;28;20020;-77
2023/05/05 01:17:23;;;;;;;6.88;4.75;;;13.30;99.90;;;;;;5096907;28;19904;-77
2023/05/05 01:20:07;;;;;;;7.90;4.43;;;13.50;99.90;;;;;;5097460;28;20067;-77
2023/05/05 01:22:45;;;;;;;7.82;4.32;;;13.60;99.90;;;;;;5097842;28;20030;-77
2023/05/05 01:26:04;;;;;;;7.03;4.03;;;13.60;99.90;;;;;;5097720;28;20027;-77
2023/05/05 01:29:00;;;;;;;7.72;4.20;;;13.60;99.90;;;;;;5039461;28;20205;-77
2023/05/05 01:31:50;;;;;;;9.30;4.80;;;13.80;99.90;;;;;;5039820;28;20152;-78
2023/05/05 01:34:19;;;;;;;6.47;4.55;;;13.90;99.90;;;;;;5039338;28;20041;-77
2023/05/05 01:36:52;;;;;;;10.70;4.57;;;13.90;99.90;;;;;;5039186;28;20040;-77
2023/05/05 01:39:18;;;;;;;9.95;4.28;;;13.90;99.90;;;;;;5039632;28;20037;-78
2023/05/05 01:41:49;;;;;;;7.15;4.15;;;13.90;99.90;;;;;;5038985;28;20029;-78
2023/05/05 01:44:17;;;;;;;7.15;4.13;;;14.00;99.90;;;;;;5039012;28;20024;-78
2023/05/05 01:46:43;;;;;;;9.68;4.70;;;14.00;99.90;;;;;;5039076;28;20078;-77
2023/05/05 01:49:10;;;;;;;7.40;4.30;;;14.00;99.90;;;;;;5055689;28;20025;-77
2023/05/05 01:51:37;;;;;;;7.22;4.53;;;13.80;99.90;;;;;;5039041;28;20029;-77
2023/05/05 01:54:06;;;;;;;11.23;4.57;;;13.50;99.90;;;;;;5038766;28;20021;-77
2023/05/05 01:56:33;;;;;;;11.48;4.15;;;13.60;99.90;;;;;;5038989;28;20024;-77
2023/05/05 01:59:00;;;;;;;9.52;4.15;;;13.60;99.90;;;;;;5066552;28;20032;-77
2023/05/05 02:01:27;;;;;;;8.75;4.68;;;13.60;99.90;;;;;;5096535;28;20020;-77
2023/05/05 02:03:56;;;;;;;9.50;5.15;;;13.60;99.90;;;;;;5096762;28;20020;-77
2023/05/05 02:06:22;;;;;;;8.00;4.68;;;13.50;99.90;;;;;;5096339;28;20024;-77
2023/05/05 02:08:49;;;;;;;8.73;5.43;;;13.50;99.90;;;;;;5101038;28;20004;-77
2023/05/05 02:11:16;;;;;;;7.13;4.57;;;13.50;99.90;;;;;;5100154;28;20020;-77
2023/05/05 02:13:42;;;;;;;8.07;4.90;;;13.40;99.90;;;;;;5096648;28;20024;-77
2023/05/05 02:16:09;;;;;;;7.20;5.03;;;13.30;99.90;;;;;;5096567;28;20028;-77
2023/05/05 02:18:36;;;;;;;9.32;5.25;;;13.30;99.90;;;;;;5097831;28;20032;-77
2023/05/05 02:21:02;;;;;;;11.18;4.78;;;13.30;99.90;;;;;;5101183;28;20020;-77
2023/05/05 02:23:28;;;;;;;10.38;5.15;;;13.20;99.90;;;;;;5101382;28;20021;-77
2023/05/05 02:25:58;;;;;;;10.73;5.35;;;13.10;99.90;;;;;;5101257;28;20016;-78
2023/05/05 02:28:47;;;;;;;7.03;4.70;;;13.20;99.90;;;;;;5100574;28;20134;-77
2023/05/05 02:31:16;;;;;;;8.00;4.85;;;13.40;99.90;;;;;;5100210;28;20024;-77
2023/05/05 02:33:43;;;;;;;14.57;5.20;;;13.40;99.90;;;;;;5100106;28;20035;-77
2023/05/05 02:36:20;;;;;;;10.70;4.65;;;13.40;99.90;;;;;;5100985;28;20035;-77
2023/05/05 02:38:51;;;;;;;6.22;4.30;;;13.50;99.90;;;;;;5101019;28;20058;-77
2023/05/05 02:41:19;;;;;;;7.72;4.43;;;13.50;99.90;;;;;;5099995;28;20123;-78
2023/05/05 02:43:48;;;;;;;10.18;4.65;;;13.50;99.90;;;;;;5100010;28;20023;-77
2023/05/05 02:46:14;;;;;;;9.50;4.35;;;13.60;99.90;;;;;;5099947;28;20024;-77
2023/05/05 02:48:40;;;;;;;7.18;4.32;;;13.50;99.90;;;;;;5100446;28;20094;-77
2023/05/05 02:51:06;;;;;;;7.00;4.63;;;13.40;99.90;;;;;;5100987;28;20020;-78
2023/05/05 02:53:32;;;;;;;7.03;4.25;;;13.20;99.90;;;;;;5100312;28;20119;-77
2023/05/05 02:56:38;;;;;;;9.40;4.53;;;13.10;99.90;;;;;;5100144;28;20087;-77
2023/05/05 02:59:37;;;;;;;8.15;4.35;;;13.10;99.90;;;;;;5098724;28;20085;-77
2023/05/05 03:02:13;;;;;;;8.20;4.70;;;13.20;99.90;;;;;;5100072;28;20093;-77
2023/05/05 03:04:44;;;;;;;7.00;4.60;;;13.10;99.90;;;;;;5099764;28;20032;-77
2023/05/05 03:07:20;;;;;;;15.00;5.32;;;13.00;99.90;;;;;;5100446;28;20039;-77
2023/05/05 03:10:11;;;;;;;8.05;5.35;;;13.00;99.90;;;;;;5100648;28;20020;-77
2023/05/05 03:12:52;;;;;;;11.13;5.50;;;12.90;99.90;;;;;;5099136;28;20039;-77
2023/05/05 03:15:26;;;;;;;10.38;5.30;;;12.90;99.90;;;;;;5100214;28;20093;-77
2023/05/05 03:17:53;;;;;;;6.82;4.68;;;12.80;99.90;;;;;;5100356;28;20107;-77
2023/05/05 03:20:20;;;;;;;10.88;5.43;;;12.80;99.90;;;;;;5100250;28;20054;-77
2023/05/05 03:22:46;;;;;;;7.63;4.60;;;12.90;99.90;;;;;;5099145;28;20016;-77
2023/05/05 03:25:11;;;;;;;8.48;4.63;;;12.90;99.90;;;;;;5100659;28;20019;-77
2023/05/05 03:27:37;;;;;;;9.25;4.55;;;12.90;99.90;;;;;;5099129;28;20024;-77
2023/05/05 03:30:03;;;;;;;7.65;4.70;;;12.90;99.90;;;;;;5099001;28;20028;-77
2023/05/05 03:32:29;;;;;;;8.68;4.88;;;13.00;99.90;;;;;;5098824;28;20017;-77
2023/05/05 03:34:55;;;;;;;11.38;5.88;;;13.20;99.90;;;;;;5099482;28;20036;-77
2023/05/05 03:37:20;;;;;;;7.53;5.18;;;13.20;99.90;;;;;;5099125;28;20069;-77
2023/05/05 03:39:46;;;;;;;13.18;5.45;;;13.20;99.90;;;;;;5099998;28;20020;-77
2023/05/05 03:42:12;;;;;;;7.53;5.22;;;13.10;99.90;;;;;;5098887;28;20046;-78
2023/05/05 03:44:37;;;;;;;7.18;4.55;;;12.90;99.90;;;;;;5099557;28;20031;-78
2023/05/05 03:47:03;;;;;;;10.55;5.57;;;12.80;99.90;;;;;;5099661;28;20020;-77
2023/05/05 03:49:28;;;;;;;10.77;5.60;;;12.80;99.90;;;;;;5099730;28;20023;-78
2023/05/05 03:51:54;;;;;;;10.18;4.88;;;12.70;99.90;;;;;;5099741;28;20024;-77
2023/05/05 03:54:19;;;;;;;9.02;5.50;;;12.70;99.90;;;;;;5099509;28;20062;-77
2023/05/05 03:56:45;;;;;;;10.32;6.35;;;12.70;99.90;;;;;;5099596;28;20028;-78
2023/05/05 03:59:10;;;;;;;11.77;6.00;;;12.50;99.90;;;;;;5098587;28;20020;-77
2023/05/05 04:01:36;;;;;;;9.30;5.03;;;12.40;99.90;;;;;;5099160;28;20027;-77
2023/05/05 04:04:02;;;;;;;10.23;5.32;;;12.50;99.90;;;;;;5099544;28;20117;-77
2023/05/05 04:06:27;;;;;;;9.30;5.03;;;12.50;99.90;;;;;;5098477;28;20115;-77
2023/05/05 04:08:53;;;;;;;11.60;5.82;;;12.60;99.90;;;;;;5098848;28;20012;-77
2023/05/05 04:11:20;;;;;;;8.82;4.97;;;12.50;99.90;;;;;;5098708;28;20077;-77
2023/05/05 04:13:45;;;;;;;10.60;5.38;;;12.50;99.90;;;;;;5099408;28;20084;-77
2023/05/05 04:16:11;;;;;;;11.52;5.20;;;12.50;99.90;;;;;;5106922;28;20020;-77
2023/05/05 04:18:37;;;;;;;9.95;5.20;;;12.50;99.90;;;;;;5098787;28;20097;-77
2023/05/05 04:21:02;;;;;;;9.73;5.70;;;12.50;99.90;;;;;;5098193;28;20020;-77
2023/05/05 04:23:28;;;;;;;12.13;5.18;;;12.50;99.90;;;;;;5098836;28;20027;-77
2023/05/05 04:25:53;;;;;;;11.70;5.07;;;12.40;99.90;;;;;;5098484;28;20020;-77
2023/05/05 04:28:19;;;;;;;12.00;5.80;;;12.40;99.90;;;;;;5098252;28;20020;-77
2023/05/05 04:30:45;;;;;;;7.72;5.00;;;12.40;99.90;;;;;;5097897;28;20020;-77
2023/05/05 04:33:11;;;;;;;12.63;5.20;;;12.30;99.90;;;;;;5098667;28;20028;-77
2023/05/05 04:35:36;;;;;;;9.80;5.20;;;12.30;99.90;;;;;;5097851;28;20024;-77
2023/05/05 04:38:02;;;;;;;7.80;5.13;;;12.20;99.90;;;;;;5098941;28;20028;-77
2023/05/05 04:40:28;;;;;;;7.95;5.03;;;12.20;99.90;;;;;;5098567;28;20028;-77
2023/05/05 04:42:54;;;;;;;9.43;5.68;;;12.30;99.90;;;;;;5097405;28;20027;-77
2023/05/05 04:45:19;;;;;;;13.13;6.03;;;12.30;99.90;;;;;;5098007;28;20024;-77
2023/05/05 04:47:45;;;;;;;9.00;5.32;;;12.40;99.90;;;;;;5097708;28;20054;-77
2023/05/05 04:50:11;;;;;;;11.10;5.65;;;12.40;99.90;;;;;;5098259;28;20027;-77
2023/05/05 04:52:36;;;;;;;12.60;6.35;;;12.40;99.90;;;;;;5097824;28;20024;-77
2023/05/05 04:55:03;;;;;;;12.02;5.90;;;12.40;99.90;;;;;;5098264;28;20059;-77
2023/05/05 04:57:29;;;;;;;8.98;5.35;;;12.50;99.90;;;;;;5097705;28;20028;-77
2023/05/05 04:59:55;;;;;;;11.23;6.20;;;12.50;99.90;;;;;;5097508;28;20032;-77
2023/05/05 05:02:20;;;;;;;10.85;6.18;;;12.40;99.90;;;;;;5097276;28;20024;-77
2023/05/05 05:04:46;;;;;;;12.65;6.32;;;12.30;99.90;;;;;;5098442;28;20024;-77
2023/05/05 05:07:13;;;;;;;8.45;5.32;;;12.30;99.90;;;;;;5098025;28;20015;-77
2023/05/05 05:09:39;;;;;;;10.15;5.68;;;12.20;99.90;;;;;;5098074;28;20020;-78
2023/05/05 05:12:06;;;;;;;11.82;5.70;;;12.10;99.90;;;;;;5097178;28;20089;-77
2023/05/05 05:14:38;;;;;;;9.50;5.75;;;12.20;99.90;;;;;;5097102;28;20069;-77
2023/05/05 05:17:07;;;;;;;10.18;5.55;;;12.30;99.90;;;;;;5097325;28;20024;-77
2023/05/05 05:19:33;;;;;;;11.48;5.95;;;12.40;99.90;;;;;;5097190;28;20031;-77
2023/05/05 05:21:58;;;;;;;10.68;5.78;;;12.40;99.90;;;;;;5097910;28;20017;-77
2023/05/05 05:24:24;;;;;;;9.95;5.80;;;12.50;99.90;;;;;;5096843;28;20024;-77
2023/05/05 05:26:50;;;;;;;8.98;5.70;;;12.40;99.90;;;;;;5096982;28;20027;-77
2023/05/05 05:29:16;;;;;;;11.07;5.50;;;12.50;99.90;;;;;;5096819;28;20016;-77
2023/05/05 05:31:41;;;;;;;17.02;6.18;;;12.60;99.90;;;;;;5096897;28;20035;-77
2023/05/05 05:34:07;;;;;;;11.27;6.13;;;12.40;99.90;;;;;;5096967;28;20039;-77
2023/05/05 05:36:32;;;;;;;10.35;5.85;;;12.50;99.90;;;;;;5096974;28;20027;-78
2023/05/05 05:38:58;;;;;;;10.30;5.38;;;12.70;99.90;;;;;;5097093;28;20082;-77
2023/05/05 05:41:23;;;;;;;12.70;6.65;;;12.70;99.90;;;;;;5097604;28;20078;-77
2023/05/05 05:43:49;;;;;;;14.25;6.72;;;12.60;99.90;;;;;;5096607;28;20070;-77
2023/05/05 05:46:14;;;;;;;11.57;6.35;;;12.50;99.90;;;;;;5097784;28;20020;-77
2023/05/05 05:48:40;;;;;;;13.23;6.10;;;12.50;99.90;;;;;;5096489;28;20111;-77
2023/05/05 05:51:05;;;;;;;10.07;5.45;;;12.70;99.90;;;;;;5096791;28;20024;-77
2023/05/05 05:53:31;;;;;;;11.98;6.20;;;12.80;99.90;;;;;;5096244;28;20024;-77
2023/05/05 05:55:57;;;;;;;11.10;5.95;;;13.10;99.90;;;;;;5096336;28;20024;-77
2023/05/05 05:58:22;;;;;;;9.63;5.80;;;13.20;99.90;;;;;;5097435;28;20029;-77
2023/05/05 06:00:48;;;;;;;15.05;5.88;;;13.20;99.90;;;;;;5096295;28;20020;-78
2023/05/05 06:03:13;;;;;;;13.77;6.35;;;13.30;99.90;;;;;;5096351;28;20039;-77
2023/05/05 06:05:39;;;;;;;12.23;7.13;;;13.40;99.90;;;;;;5096404;28;20032;-77
2023/05/05 06:08:05;;;;;;;16.15;6.85;;;13.50;99.90;;;;;;5096652;28;20020;-75
2023/05/05 06:10:30;;;;;;;11.25;6.53;;;13.60;99.90;;;;;;5096289;28;20020;-77
2023/05/05 06:12:56;;;;;;;10.30;6.18;;;13.70;99.90;;;;;;5096459;28;20073;-78
2023/05/05 06:15:21;;;;;;;12.20;6.93;;;13.80;99.90;;;;;;5096395;28;20032;-77
2023/05/05 06:17:47;;;;;;;13.77;6.32;;;13.90;99.90;;;;;;5096360;28;20085;-78
2023/05/05 06:20:12;;;;;;;15.30;6.65;;;14.00;99.90;;;;;;5097457;28;20028;-78
2023/05/05 06:22:38;;;;;;;10.15;5.82;;;14.10;99.90;;;;;;5098593;28;20040;-77
2023/05/05 06:25:04;;;;;;;11.45;5.85;;;14.10;99.90;;;;;;5103288;28;20020;-74
2023/05/05 06:27:29;;;;;;;13.35;7.32;;;14.30;99.90;;;;;;5097154;28;20024;-79
2023/05/05 06:29:55;;;;;;;10.20;5.93;;;14.40;99.90;;;;;;5096767;28;20154;-75
2023/05/05 06:32:20;;;;;;;13.75;6.60;;;14.50;99.90;;;;;;5096111;28;20016;-75
2023/05/05 06:34:47;;;;;;;17.92;6.68;;;14.30;99.90;;;;;;5097206;28;20040;-77
2023/05/05 06:37:12;;;;;;;14.77;7.30;;;14.20;99.90;;;;;;5096277;28;20048;-74
2023/05/05 06:39:38;;;;;;;16.52;6.70;;;14.10;99.90;;;;;;5096995;28;20070;-74
2023/05/05 06:42:03;;;;;;;9.63;6.05;;;14.20;99.90;;;;;;5095886;28;20031;-74
2023/05/05 06:44:29;;;;;;;12.15;6.82;;;14.50;99.90;;;;;;5095996;28;20016;-76
2023/05/05 06:46:55;;;;;;;12.00;5.88;;;14.60;99.90;;;;;;5097411;28;20016;-75
2023/05/05 06:49:21;;;;;;;12.02;6.20;;;14.80;99.90;;;;;;5096129;28;20027;-75
2023/05/05 06:51:47;;;;;;;14.75;7.20;;;14.90;99.90;;;;;;5096843;28;20055;-74
2023/05/05 06:54:12;;;;;;;12.45;6.25;;;15.00;99.90;;;;;;5096032;28;20024;-78
2023/05/05 06:56:38;;;;;;;12.55;6.53;;;15.00;99.90;;;;;;5095799;28;20035;-77
2023/05/05 06:59:03;;;;;;;12.82;6.03;;;15.00;99.90;;;;;;5095978;28;20020;-75
2023/05/05 07:01:29;;;;;;;11.98;5.70;;;15.10;99.90;;;;;;5096184;28;20024;-75
2023/05/05 07:03:54;;;;;;;15.48;5.70;;;15.20;99.90;;;;;;5096156;28;20020;-78
2023/05/05 07:06:20;;;;;;;12.70;5.30;;;15.50;99.90;;;;;;5097722;28;20024;-76
2023/05/05 07:08:46;;;;;;;14.27;5.85;;;15.60;99.90;;;;;;5099618;28;20061;-77
2023/05/05 07:11:11;;;;;;;17.05;5.40;;;15.60;99.90;;;;;;5100407;28;20097;-76
2023/05/05 07:13:37;;;;;;;16.55;5.35;;;15.70;99.90;;;;;;5099553;28;20023;-76
2023/05/05 07:16:02;;;;;;;17.20;5.72;;;15.80;99.90;;;;;;5099903;28;20085;-76
2023/05/05 07:18:28;;;;;;;15.52;4.65;;;15.70;99.90;;;;;;5099458;28;20115;-77
2023/05/05 07:20:53;;;;;;;14.70;5.15;;;15.70;99.90;;;;;;5100160;28;20028;-78
2023/05/05 07:23:19;;;;;;;15.95;4.47;;;15.80;99.90;;;;;;5100053;28;20074;-75
2023/05/05 07:25:44;;;;;;;8.30;4.50;;;16.00;99.90;;;;;;5100120;28;20107;-75
2023/05/05 07:28:10;;;;;;;13.23;4.45;;;16.30;99.90;;;;;;5099084;28;20023;-75
2023/05/05 07:30:36;;;;;;;21.58;4.88;;;16.50;99.90;;;;;;5099476;28;20024;-75
2023/05/05 07:33:01;;;;;;;10.27;4.60;;;16.50;99.90;;;;;;5099085;28;20024;-75
2023/05/05 07:35:27;;;;;;;20.05;4.88;;;16.60;99.90;;;;;;5100100;28;20036;-75
2023/05/05 07:37:53;;;;;;;10.95;4.15;;;16.60;99.90;;;;;;5099994;28;20026;-75
2023/05/05 07:40:18;;;;;;;17.35;4.72;;;17.10;99.90;;;;;;5098882;28;20096;-75
2023/05/05 07:42:44;;;;;;;14.38;4.45;;;17.20;99.90;;;;;;5099656;28;20019;-75
2023/05/05 07:45:10;;;;;;;16.85;4.00;;;17.40;99.90;;;;;;5098929;28;20043;-75
2023/05/05 07:47:35;;;;;;;14.90;4.13;;;17.40;99.90;;;;;;5098670;28;20161;-76
2023/05/05 07:50:01;;;;;;;9.70;3.90;;;17.50;99.90;;;;;;5098917;28;20043;-76
2023/05/05 07:52:26;;;;;;;9.82;4.18;;;17.80;99.90;;;;;;5099623;28;20027;-76
2023/05/05 07:54:52;;;;;;;11.85;3.83;;;17.90;99.90;;;;;;5099628;28;20022;-76
2023/05/05 07:57:17;;;;;;;7.10;3.80;;;18.00;99.90;;;;;;5098979;28;20111;-75
2023/05/05 07:59:43;;;;;;;7.15;4.10;;;18.20;99.90;;;;;;5099427;28;20099;-75
2023/05/05 08:02:11;;;;;;;5.55;3.63;;;18.10;99.90;;;;;;5098835;28;20023;-75
2023/05/05 08:04:40;;;;;;;8.48;4.30;;;18.30;99.90;;;;;;5098525;28;20022;-75
2023/05/05 08:07:06;;;;;;;5.53;3.67;;;18.30;99.90;;;;;;5098495;28;20080;-75
2023/05/05 08:09:35;;;;;;;10.07;3.78;;;18.30;99.90;;;;;;5099556;28;20027;-75
2023/05/05 08:12:01;;;;;;;7.80;3.80;;;18.60;99.90;;;;;;5099308;28;20027;-75
2023/05/05 08:14:27;;;;;;;5.22;3.80;;;18.70;99.90;;;;;;5099256;28;20028;-75
2023/05/05 08:16:53;;;;;;;6.20;3.80;;;18.90;99.90;;;;;;5098768;28;20031;-75
2023/05/05 08:19:18;;;;;;;10.48;3.95;;;19.00;99.90;;;;;;5098809;28;20020;-75
2023/05/05 08:21:44;;;;;;;8.50;3.90;;;19.00;99.90;;;;;;5099291;28;20020;-75
2023/05/05 08:24:10;;;;;;;6.47;4.10;;;19.20;99.90;;;;;;5098472;28;20024;-75
2023/05/05 08:26:35;;;;;;;6.90;3.78;;;19.40;99.90;;;;;;5099207;28;20020;-75
2023/05/05 08:29:01;;;;;;;6.10;3.50;;;19.60;99.90;;;;;;5098147;28;20119;-76
2023/05/05 08:31:28;;;;;;;6.55;3.85;;;19.50;99.90;;;;;;5097987;28;20030;-76
2023/05/05 08:33:54;;;;;;;9.80;3.88;;;19.50;99.90;;;;;;5098064;28;20032;-75
2023/05/05 08:36:19;;;;;;;6.22;4.00;;;19.30;99.90;;;;;;5097968;28;20024;-76
2023/05/05 08:38:45;;;;;;;7.43;3.45;;;19.40;99.90;;;;;;5098923;28;20103;-76
2023/05/05 08:41:12;;;;;;;9.15;3.58;;;19.50;99.90;;;;;;5099198;28;20031;-76
2023/05/05 08:43:38;;;;;;;7.35;4.13;;;19.60;99.90;;;;;;5098553;28;20028;-76
2023/05/05 08:46:04;;;;;;;8.95;3.92;;;19.70;99.90;;;;;;5098877;28;20027;-76
2023/05/05 08:48:32;;;;;;;11.82;3.70;;;19.90;99.90;;;;;;5098848;28;20118;-76
2023/05/05 08:50:58;;;;;;;7.57;4.53;;;19.90;99.90;;;;;;5098111;28;20036;-76
2023/05/05 08:54:00;;;;;;;7.53;4.65;;;19.90;99.90;;;;;;5098708;28;20095;-76
2023/05/05 08:56:33;;;;;;;9.90;4.45;;;20.00;99.90;;;;;;5056691;28;20025;-76
2023/05/05 08:59:00;;;;;;;9.50;5.03;;;19.90;99.90;;;;;;5040487;28;20025;-76
2023/05/05 09:01:26;;;;;;;6.20;4.47;;;20.10;99.90;;;;;;5056492;28;20036;-76
2023/05/05 09:03:52;;;;;;;7.22;4.07;;;20.10;99.90;;;;;;5056326;28;20025;-76
2023/05/05 09:06:21;;;;;;;8.10;4.43;;;20.10;99.90;;;;;;5056887;28;20051;-76
2023/05/05 09:08:46;;;;;;;9.52;4.95;;;20.40;99.90;;;;;;5039739;28;20025;-76
2023/05/05 09:11:12;;;;;;;8.68;4.57;;;20.40;99.90;;;;;;5039661;28;20031;-76
2023/05/05 09:13:37;;;;;;;7.22;4.20;;;20.30;99.90;;;;;;5056426;28;20045;-76
2023/05/05 09:16:03;;;;;;;9.63;4.03;;;20.30;99.90;;;;;;5039498;28;20065;-76
2023/05/05 09:18:28;;;;;;;12.63;3.80;;;20.30;99.90;;;;;;5039552;28;20064;-76
2023/05/05 09:20:54;;;;;;;5.28;4.25;;;20.50;99.90;;;;;;5039355;28;20029;-76
2023/05/05 09:23:20;;;;;;;7.90;4.85;;;20.90;99.90;;;;;;5039323;28;20029;-76
2023/05/05 09:26:03;;;;;;;10.95;4.97;;;21.10;99.90;;;;;;5040099;28;20116;-76
2023/05/05 09:28:29;;;;;;;7.45;5.07;;;21.20;99.90;;;;;;5055513;28;20044;-76
2023/05/05 09:30:54;;;;;;;6.85;4.72;;;21.40;99.90;;;;;;5042779;28;20097;-76
2023/05/05 09:33:30;;;;;;;12.35;5.68;;;21.50;99.90;;;;;;5096526;28;20089;-76
2023/05/05 09:35:57;;;;;;;7.53;4.43;;;21.40;99.90;;;;;;5097848;28;20115;-76
2023/05/05 09:38:24;;;;;;;8.65;4.70;;;21.30;99.90;;;;;;5096870;28;20056;-76
2023/05/05 09:40:51;;;;;;;7.75;4.90;;;21.60;99.90;;;;;;5096710;28;20024;-76
2023/05/05 09:43:18;;;;;;;7.05;4.00;;;21.80;99.90;;;;;;5097637;28;20024;-76
2023/05/05 09:45:44;;;;;;;10.23;4.47;;;21.90;99.90;;;;;;5097159;28;20020;-76
2023/05/05 09:48:24;;;;;;;9.77;5.57;;;21.90;99.90;;;;;;5096739;28;20043;-76
2023/05/05 09:50:50;;;;;;;7.07;4.85;;;22.10;99.90;;;;;;5097518;28;20016;-76
2023/05/05 09:53:15;;;;;;;6.85;5.32;;;21.90;99.90;;;;;;5096836;28;20020;-76
2023/05/05 09:55:51;;;;;;;6.82;5.47;;;21.60;99.90;;;;;;5096440;28;20020;-76
2023/05/05 09:58:22;;;;;;;6.15;4.93;;;21.80;99.90;;;;;;5096576;28;20024;-76
2023/05/05 10:00:48;;;;;;;8.60;4.38;;;21.90;99.90;;;;;;5097225;28;20024;-76
2023/05/05 10:03:14;;;;;;;6.68;4.68;;;22.20;99.90;;;;;;5096645;28;20024;-76
2023/05/05 10:05:49;;;;;;;9.13;3.63;;;22.10;99.90;;;;;;5096541;28;20051;-76
2023/05/05 10:08:16;;;;;;;6.18;2.58;;;22.30;99.90;;;;;;5096423;28;20020;-75
2023/05/05 10:11:05;;;;;;;5.40;3.97;;;22.60;99.90;;;;;;5096414;28;20024;-76
2023/05/05 10:13:36;;;;;;;5.00;3.13;;;23.00;99.90;;;;;;5097150;28;20076;-76
2023/05/05 10:16:03;;;;;;;4.53;2.80;;;23.20;99.90;;;;;;5096365;28;20024;-76
2023/05/05 10:18:30;;;;;;;4.18;2.50;;;23.20;99.90;;;;;;5096071;28;20024;-76
2023/05/05 10:21:02;;;;;;;8.60;3.72;;;23.20;99.90;;;;;;5096456;28;20051;-76
2023/05/05 10:24:04;;;;;;;4.20;3.08;;;23.40;99.90;;;;;;5096172;28;20020;-76
2023/05/05 10:26:36;;;;;;;5.60;2.95;;;23.20;99.90;;;;;;5096148;28;20047;-76
2023/05/05 10:29:06;;;;;;;3.92;2.67;;;23.60;99.90;;;;;;5096165;28;20024;-76
2023/05/05 10:31:48;;;;;;;2.83;2.40;;;23.80;99.90;;;;;;5096478;28;20048;-76
2023/05/05 10:34:37;;;;;;;3.72;2.47;;;23.80;99.90;;;;;;5097309;28;20039;-76
2023/05/05 10:37:03;;;;;;;3.55;2.85;;;23.90;99.90;;;;;;5080818;28;20047;-75
2023/05/05 10:39:30;;;;;;;5.93;3.17;;;24.10;99.90;;;;;;5097540;28;20085;-76
2023/05/05 10:42:00;;;;;;;4.78;2.30;;;24.20;99.90;;;;;;5101013;28;20054;-76
2023/05/05 10:44:29;;;;;;;3.05;2.03;;;24.60;99.90;;;;;;5101192;28;20024;-76
2023/05/05 10:46:55;;;;;;;5.28;2.20;;;24.40;99.90;;;;;;5101743;28;20048;-76
2023/05/05 10:49:41;;;;;;;3.50;2.22;;;24.50;99.90;;;;;;5100248;28;20020;-76
2023/05/05 10:52:21;;;;;;;3.53;2.28;;;24.10;99.90;;;;;;5103036;28;20024;-75
2023/05/05 10:55:08;;;;;;;2.88;2.03;;;24.10;99.90;;;;;;5100378;28;20024;-76
2023/05/05 10:57:38;;;;;;;3.97;2.38;;;23.80;99.90;;;;;;5099938;28;20024;-76
2023/05/05 11:00:05;;;;;;;2.97;1.80;;;23.70;99.90;;;;;;5100535;28;20035;-76
2023/05/05 11:02:30;;;;;;;4.85;1.88;;;23.50;99.90;;;;;;5099913;28;20069;-76
2023/05/05 11:05:08;;;;;;;3.67;1.98;;;23.70;99.90;;;;;;5100553;28;20028;-76
2023/05/05 11:07:35;;;;;;;5.60;2.30;;;24.20;99.90;;;;;;5100918;28;20028;-75
2023/05/05 11:10:03;;;;;;;6.35;4.13;;;24.50;99.90;;;;;;5100271;28;20028;-76
2023/05/05 11:12:30;;;;;;;4.25;3.67;;;25.00;99.90;;;;;;5099326;28;20024;-76
2023/05/05 11:15:27;;;;;;;3.90;2.50;;;25.30;99.90;;;;;;5099449;28;20103;-76
2023/05/05 11:17:56;;;;;;;10.95;3.08;;;25.20;99.90;;;;;;5100385;28;20115;-75
2023/05/05 11:20:42;;;;;;;3.55;2.28;;;25.50;99.90;;;;;;5100343;28;20027;-76
2023/05/05 11:23:07;;;;;;;5.35;2.22;;;25.70;99.90;;;;;;5099540;28;20012;-76
2023/05/05 11:25:36;;;;;;;4.30;3.10;;;25.80;99.90;;;;;;5100306;28;20021;-76
2023/05/05 11:28:12;;;;;;;8.10;4.13;;;26.00;99.90;;;;;;5099247;28;20016;-76
2023/05/05 11:30:57;;;;;;;5.97;2.95;;;26.10;99.90;;;;;;5100143;28;20198;-76
2023/05/05 11:33:22;;;;;;;5.80;4.22;;;26.10;99.90;;;;;;5099160;28;20081;-76
2023/05/05 11:35:59;;;;;;;9.23;4.88;;;26.40;99.90;;;;;;5099402;28;20047;-76
2023/05/05 11:38:32;;;;;;;9.85;4.82;;;26.90;99.90;;;;;;5099272;28;20035;-76
2023/05/05 11:41:12;;;;;;;11.55;4.88;;;26.80;99.90;;;;;;5098943;28;20020;-76
2023/05/05 11:43:40;;;;;;;10.30;4.78;;;27.00;99.90;;;;;;5098987;28;20024;-76
2023/05/05 11:46:15;;;;;;;10.30;5.80;;;26.20;99.90;;;;;;5098837;28;20029;-76
2023/05/05 11:48:48;;;;;;;8.95;5.88;;;26.30;99.90;;;;;;5098990;28;20087;-76
2023/05/05 11:51:16;;;;;;;10.38;5.32;;;26.10;99.90;;;;;;5097952;28;20036;-76
2023/05/05 11:53:43;;;;;;;8.52;5.30;;;25.70;99.90;;;;;;5099065;28;20058;-76
2023/05/05 11:56:10;;;;;;;9.57;4.32;;;25.30;99.90;;;;;;5099549;28;20028;-76
2023/05/05 11:58:36;;;;;;;9.27;4.93;;;25.50;99.90;;;;;;5098679;28;20035;-76
2023/05/05 12:01:08;;;;;;;12.52;5.32;;;25.20;99.90;;;;;;5098598;28;20110;-76
2023/05/05 12:03:38;;;;;;;7.63;4.05;;;25.10;99.90;;;;;;5098357;28;20024;-76
2023/05/05 12:06:04;;;;;;;8.20;3.58;;;24.80;99.90;;;;;;5098535;28;20024;-75
2023/05/05 12:08:40;;;;;;;5.18;2.53;;;23.90;99.90;;;;;;5098374;28;20021;-75
2023/05/05 12:11:08;;;;;;;4.70;2.35;;;23.80;99.90;;;;;;5099302;28;20038;-76
2023/05/05 12:13:34;;;;;;;3.58;2.33;;;23.60;99.90;;;;;;5098502;28;20035;-76
2023/05/05 12:16:13;;;;;;;2.72;1.83;;;23.60;99.90;;;;;;5098308;28;20024;-76
2023/05/05 12:18:39;;;;;;;2.70;1.77;;;23.20;99.90;;;;;;5098292;28;20155;-76
2023/05/05 12:21:18;;;;;;;4.10;2.00;;;23.40;99.90;;;;;;5098699;28;20115;-76
2023/05/05 12:23:44;;;;;;;3.95;1.52;;;23.20;99.90;;;;;;5099043;28;20024;-76
2023/05/05 12:26:29;;;;;;;5.93;2.13;;;23.40;99.90;;;;;;5098402;28;20024;-76
2023/05/05 12:28:59;;;;;;;11.68;2.10;;;23.30;99.90;;;;;;5098390;28;20020;-76
2023/05/05 12:31:40;;;;;;;2.00;1.50;;;23.30;99.90;;;;;;5097808;28;20024;-76
2023/05/05 12:34:09;;;;;;;5.45;1.50;;;23.30;99.90;;;;;;5098951;28;20028;-76
2023/05/05 12:36:36;;;;;;;5.22;1.40;;;23.50;99.90;;;;;;5098773;28;20102;-76
2023/05/05 12:39:03;;;;;;;2.45;1.77;;;23.60;99.90;;;;;;5097863;28;20024;-76
2023/05/05 12:41:30;;;;;;;1.95;1.58;;;23.40;99.90;;;;;;5097777;28;20028;-76
2023/05/05 12:43:57;;;;;;;2.88;1.35;;;23.90;99.90;;;;;;5098542;28;20020;-76
2023/05/05 12:46:22;;;;;;;1.70;1.05;;;24.20;99.90;;;;;;5129088;22;20027;-75
2023/05/05 12:49:04;;;;;;;2.20;1.38;;;24.30;99.90;;;;;;5118994;28;20023;-75
2023/05/05 12:51:31;;;;;;;2.08;1.30;;;24.40;99.90;;;;;;5118015;28;20024;-75